createdAt,value
2019-02-28T00:01:12.772Z,7.20
2019-02-28T00:03:40.642Z,7.67
2019-02-28T00:06:11.750Z,7.37
2019-02-28T00:08:37.641Z,7.47
2019-02-28T00:11:06.040Z,7.53
2019-02-28T00:13:33.811Z,8.13
2019-02-28T00:16:03.281Z,7.33
2019-02-28T00:18:30.832Z,7.33
2019-02-28T00:20:58.485Z,8.27
2019-02-28T00:23:26.128Z,7.80
2019-02-28T00:25:53.787Z,7.80
2019-02-28T00:28:23.147Z,7.43
2019-02-28T00:30:50.818Z,8.03
2019-02-28T00:33:18.450Z,8.77
2019-02-28T00:35:46.088Z,8.13
2019-02-28T00:38:13.740Z,8.60
2019-02-28T00:40:41.395Z,8.20
2019-02-28T00:43:09.044Z,7.37
2019-02-28T00:45:37.369Z,8.60
2019-02-28T00:48:05.210Z,8.17
2019-02-28T00:50:32.852Z,8.87
2019-02-28T00:53:00.511Z,8.10
2019-02-28T00:55:28.157Z,8.13
2019-02-28T00:57:56.040Z,8.97
2019-02-28T01:00:23.758Z,8.73
2019-02-28T01:02:53.263Z,9.07
2019-02-28T01:05:20.763Z,8.40
2019-02-28T01:07:49.090Z,8.43
2019-02-28T01:10:16.844Z,9.20
2019-02-28T01:12:44.503Z,7.97
2019-02-28T01:15:12.149Z,8.30
2019-02-28T01:17:39.814Z,8.23
2019-02-28T01:20:07.459Z,8.03
2019-02-28T01:22:35.121Z,8.67
2019-02-28T01:25:02.771Z,8.20
2019-02-28T01:27:30.417Z,8.30
2019-02-28T01:29:58.051Z,8.50
2019-02-28T01:32:25.703Z,8.33
2019-02-28T01:34:53.362Z,9.13
2019-02-28T01:37:21.918Z,9.07
2019-02-28T01:39:49.749Z,8.30
2019-02-28T01:42:20.162Z,9.47
2019-02-28T01:44:46.756Z,8.93
2019-02-28T01:47:14.413Z,8.43
2019-02-28T01:49:42.056Z,8.43
2019-02-28T01:52:10.609Z,8.83
2019-02-28T01:54:38.547Z,8.40
2019-02-28T01:57:08.989Z,8.97
2019-02-28T01:59:35.552Z,8.43
2019-02-28T02:02:06.750Z,8.53
2019-02-28T02:04:32.573Z,8.33
2019-02-28T02:07:00.489Z,8.20
2019-02-28T02:09:28.239Z,8.53
2019-02-28T02:11:57.985Z,8.70
2019-02-28T02:14:25.256Z,9.07
2019-02-28T02:16:52.928Z,8.53
2019-02-28T02:19:20.583Z,9.20
2019-02-28T02:21:48.223Z,9.43
2019-02-28T02:24:15.876Z,8.87
2019-02-28T02:26:45.166Z,9.90
2019-02-28T02:29:12.882Z,9.13
2019-02-28T02:31:43.343Z,11.20
2019-02-28T02:34:09.890Z,10.80
2019-02-28T02:36:37.528Z,9.97
2019-02-28T02:39:05.202Z,11.57
2019-02-28T02:41:33.693Z,10.60
2019-02-28T02:44:02.392Z,11.20
2019-02-28T02:46:30.038Z,10.70
2019-02-28T02:48:57.699Z,10.43
2019-02-28T02:51:25.349Z,11.67
2019-02-28T02:53:53.010Z,11.00
2019-02-28T02:56:20.655Z,13.00
2019-02-28T02:58:48.320Z,12.17
2019-02-28T03:01:15.981Z,12.47
2019-02-28T03:03:44.558Z,12.77
2019-02-28T03:06:14.233Z,12.30
2019-02-28T03:08:41.710Z,12.37
2019-02-28T03:11:09.356Z,12.87
2019-02-28T03:13:42.120Z,11.27
2019-02-28T03:16:06.372Z,12.97
2019-02-28T03:18:34.032Z,12.23
2019-02-28T03:21:01.679Z,12.53
2019-02-28T03:23:29.348Z,12.43
2019-02-28T03:26:02.061Z,11.80
2019-02-28T03:28:31.440Z,12.47
2019-02-28T03:30:55.697Z,11.23
2019-02-28T03:33:27.183Z,11.77
2019-02-28T03:35:52.701Z,11.43
2019-02-28T03:38:20.363Z,10.97
2019-02-28T03:40:48.003Z,10.67
2019-02-28T03:43:15.654Z,10.47
2019-02-28T03:45:43.315Z,10.17
2019-02-28T03:48:10.966Z,9.50
2019-02-28T03:50:38.610Z,10.20
2019-02-28T03:53:06.254Z,9.57
2019-02-28T03:55:39.822Z,10.20
2019-02-28T03:58:05.535Z,9.33
2019-02-28T04:00:34.090Z,8.70
2019-02-28T04:03:01.943Z,9.30
2019-02-28T04:05:29.575Z,9.87
2019-02-28T04:07:57.215Z,9.57
2019-02-28T04:10:24.862Z,8.80
2019-02-28T04:12:52.513Z,9.13
2019-02-28T04:15:20.231Z,9.03
2019-02-28T04:17:47.980Z,9.30
2019-02-28T04:20:15.613Z,7.87
2019-02-28T04:22:43.265Z,9.50
2019-02-28T04:25:10.903Z,8.80
2019-02-28T04:27:40.365Z,8.67
2019-02-28T04:30:08.400Z,7.97
2019-02-28T04:32:36.255Z,8.47
2019-02-28T04:35:03.901Z,8.67
2019-02-28T04:37:31.529Z,8.40
2019-02-28T04:39:59.176Z,7.93
2019-02-28T04:42:26.904Z,8.63
2019-02-28T04:44:54.565Z,9.87
2019-02-28T04:47:22.206Z,8.87
2019-02-28T04:49:49.855Z,9.30
2019-02-28T04:52:17.504Z,9.23
2019-02-28T04:54:45.152Z,8.90
2019-02-28T04:57:12.786Z,9.13
2019-02-28T04:59:40.436Z,8.87
2019-02-28T05:02:08.085Z,8.87
2019-02-28T05:04:36.147Z,8.77
2019-02-28T05:07:04.449Z,8.50
2019-02-28T05:09:32.102Z,8.97
2019-02-28T05:12:02.493Z,9.70
2019-02-28T05:14:29.108Z,8.67
2019-02-28T05:16:56.750Z,8.57
2019-02-28T05:19:24.390Z,9.37
2019-02-28T05:21:53.581Z,8.47
2019-02-28T05:24:21.379Z,9.53
2019-02-28T05:26:49.033Z,9.63
2019-02-28T05:29:16.672Z,8.73
2019-02-28T05:31:44.311Z,8.97
2019-02-28T05:34:13.177Z,9.43
2019-02-28T05:36:41.295Z,9.10
2019-02-28T05:39:08.968Z,8.67
2019-02-28T05:41:36.679Z,9.53
2019-02-28T05:44:06.224Z,9.20
2019-02-28T05:46:33.695Z,7.93
2019-02-28T05:49:01.332Z,7.57
2019-02-28T05:51:28.980Z,8.33
2019-02-28T05:53:56.623Z,7.40
2019-02-28T05:56:24.265Z,6.23
2019-02-28T05:58:52.561Z,5.90
2019-02-28T06:01:20.945Z,6.00
2019-02-28T06:03:48.592Z,5.20
2019-02-28T06:06:17.288Z,5.40
2019-02-28T06:08:45.592Z,6.47
2019-02-28T06:11:15.286Z,5.63
2019-02-28T06:13:42.576Z,6.00
2019-02-28T06:16:12.324Z,5.73
2019-02-28T06:18:39.618Z,6.20
2019-02-28T06:21:07.250Z,5.83
2019-02-28T06:23:34.911Z,5.00
2019-02-28T06:26:02.561Z,6.33
2019-02-28T06:28:31.030Z,6.43
2019-02-28T06:31:00.361Z,5.90
2019-02-28T06:33:30.690Z,6.13
2019-02-28T06:35:57.597Z,5.53
2019-02-28T06:38:25.227Z,6.23
2019-02-28T06:40:52.872Z,7.23
2019-02-28T06:43:20.517Z,6.97
2019-02-28T06:45:48.154Z,6.00
2019-02-28T06:48:15.796Z,6.40
2019-02-28T06:50:44.679Z,7.73
2019-02-28T06:53:12.804Z,6.97
2019-02-28T06:55:47.696Z,6.90
2019-02-28T06:58:15.339Z,7.13
2019-02-28T07:00:44.229Z,6.57
2019-02-28T07:03:12.399Z,6.80
2019-02-28T07:05:40.084Z,6.77
2019-02-28T07:08:07.720Z,7.60
2019-02-28T07:10:35.395Z,6.90
2019-02-28T07:13:04.471Z,7.20
2019-02-28T07:15:32.379Z,8.90
2019-02-28T07:18:00.015Z,7.57
2019-02-28T07:20:27.656Z,7.53
2019-02-28T07:22:55.861Z,7.53
2019-02-28T07:25:23.638Z,8.30
2019-02-28T07:27:51.286Z,8.53
2019-02-28T07:30:19.340Z,8.13
2019-02-28T07:32:47.280Z,9.63
2019-02-28T07:35:14.921Z,8.57
2019-02-28T07:37:42.563Z,9.43
2019-02-28T07:40:15.545Z,9.70
2019-02-28T07:42:39.586Z,9.07
2019-02-28T07:45:07.247Z,10.00
2019-02-28T07:47:34.909Z,11.27
2019-02-28T07:50:02.568Z,10.37
2019-02-28T07:52:33.396Z,10.63
2019-02-28T07:54:59.603Z,11.47
2019-02-28T07:57:27.263Z,11.93
2019-02-28T07:59:54.916Z,13.40
2019-02-28T08:02:22.574Z,14.00
2019-02-28T08:04:50.636Z,14.40
2019-02-28T08:07:19.576Z,14.30
2019-02-28T08:09:47.241Z,14.00
2019-02-28T08:12:14.918Z,15.63
2019-02-28T08:14:43.610Z,16.20
2019-02-28T08:17:11.940Z,15.80
2019-02-28T08:19:39.612Z,15.87
2019-02-28T08:22:07.279Z,15.63
2019-02-28T08:24:35.873Z,15.77
2019-02-28T08:27:04.363Z,15.80
2019-02-28T08:29:32.012Z,15.57
2019-02-28T08:31:59.669Z,15.93
2019-02-28T08:34:27.321Z,16.13
2019-02-28T08:36:54.972Z,16.87
2019-02-28T08:39:22.657Z,15.97
2019-02-28T08:41:50.365Z,16.20
2019-02-28T08:44:22.775Z,17.07
2019-02-28T08:46:47.384Z,16.67
2019-02-28T08:49:15.038Z,16.47
2019-02-28T08:51:43.275Z,14.97
2019-02-28T08:54:11.144Z,17.67
2019-02-28T08:56:38.799Z,18.07
2019-02-28T08:59:11.790Z,18.47
2019-02-28T09:01:40.049Z,17.47
2019-02-28T09:04:05.844Z,18.50
2019-02-28T09:06:33.617Z,17.57
2019-02-28T09:09:01.266Z,16.87
2019-02-28T09:11:28.923Z,18.27
2019-02-28T09:13:56.571Z,16.37
2019-02-28T09:16:24.257Z,17.80
2019-02-28T09:18:51.919Z,16.63
2019-02-28T09:21:19.573Z,18.50
2019-02-28T09:23:47.230Z,18.53
2019-02-28T09:26:14.887Z,17.50
2019-02-28T09:28:44.454Z,16.97
2019-02-28T09:31:11.905Z,18.53
2019-02-28T09:33:39.561Z,18.70
2019-02-28T09:36:07.221Z,19.27
2019-02-28T09:38:34.879Z,17.73
2019-02-28T09:41:04.509Z,17.77
2019-02-28T09:43:31.897Z,15.37
2019-02-28T09:45:59.560Z,18.70
2019-02-28T09:48:27.207Z,17.70
2019-02-28T09:50:58.221Z,17.10
2019-02-28T09:53:24.227Z,17.30
2019-02-28T09:55:51.892Z,18.43
2019-02-28T09:58:19.545Z,17.77
2019-02-28T10:00:50.214Z,17.07
2019-02-28T10:03:18.624Z,17.10
2019-02-28T10:05:45.949Z,15.73
2019-02-28T10:08:13.607Z,17.87
2019-02-28T10:10:41.256Z,18.50
2019-02-28T10:13:08.899Z,18.80
2019-02-28T10:15:38.668Z,18.20
2019-02-28T10:18:05.975Z,15.30
2019-02-28T10:20:33.751Z,16.47
2019-02-28T10:23:01.419Z,16.43
2019-02-28T10:25:29.193Z,17.37
2019-02-28T10:28:01.702Z,18.33
2019-02-28T10:30:31.840Z,19.23
2019-02-28T10:32:55.593Z,17.87
2019-02-28T10:35:23.251Z,20.17
2019-02-28T10:37:50.923Z,19.93
2019-02-28T10:40:18.750Z,19.17
2019-02-28T10:42:46.517Z,20.07
2019-02-28T10:45:14.168Z,19.70
2019-02-28T10:47:41.821Z,19.03
2019-02-28T10:50:09.467Z,19.33
2019-02-28T10:52:37.136Z,18.47
2019-02-28T10:55:04.800Z,17.53
2019-02-28T10:57:32.598Z,19.53
2019-02-28T11:00:00.299Z,20.80
2019-02-28T11:02:27.972Z,18.50
2019-02-28T11:04:55.614Z,16.67
2019-02-28T11:07:23.272Z,20.10
2019-02-28T11:09:51.031Z,19.80
2019-02-28T11:12:20.285Z,17.33
2019-02-28T11:14:48.080Z,20.33
2019-02-28T11:17:15.742Z,18.57
2019-02-28T11:19:43.390Z,16.63
2019-02-28T11:22:11.058Z,18.30
2019-02-28T11:24:38.710Z,16.80
2019-02-28T11:27:06.375Z,17.57
2019-02-28T11:29:35.102Z,17.47
2019-02-28T11:32:03.404Z,18.57
2019-02-28T11:34:31.091Z,18.97
2019-02-28T11:36:58.791Z,18.50
2019-02-28T11:39:27.631Z,18.77
2019-02-28T11:41:55.951Z,17.83
2019-02-28T11:44:23.616Z,18.73
2019-02-28T11:46:51.343Z,18.00
2019-02-28T11:49:19.003Z,18.27
2019-02-28T11:51:49.359Z,18.10
2019-02-28T11:54:16.088Z,16.67
2019-02-28T11:56:43.754Z,18.80
2019-02-28T11:59:11.423Z,18.43
2019-02-28T12:01:39.095Z,17.00
2019-02-28T12:04:06.752Z,17.53
2019-02-28T12:06:34.421Z,19.07
2019-02-28T12:09:02.107Z,17.07
2019-02-28T12:11:29.781Z,19.10
2019-02-28T12:13:57.439Z,17.40
2019-02-28T12:16:25.116Z,17.97
2019-02-28T12:18:52.779Z,18.13
2019-02-28T12:21:20.459Z,18.60
2019-02-28T12:23:48.145Z,18.03
2019-02-28T12:26:17.811Z,17.93
2019-02-28T12:28:45.190Z,18.40
2019-02-28T12:31:12.851Z,19.40
2019-02-28T12:33:40.496Z,17.47
2019-02-28T12:36:08.138Z,18.07
2019-02-28T12:38:35.854Z,19.63
2019-02-28T12:41:03.500Z,17.20
2019-02-28T12:43:31.171Z,19.20
2019-02-28T12:46:00.143Z,18.77
2019-02-28T12:48:28.365Z,19.90
2019-02-28T12:50:55.999Z,19.80
2019-02-28T12:53:25.293Z,19.43
2019-02-28T12:55:53.139Z,17.17
2019-02-28T12:58:20.832Z,20.50
2019-02-28T13:00:48.670Z,19.20
2019-02-28T13:03:20.225Z,19.63
2019-02-28T13:05:48.045Z,19.57
2019-02-28T13:08:15.079Z,19.13
2019-02-28T13:10:42.762Z,20.30
2019-02-28T13:13:10.419Z,21.13
2019-02-28T13:15:38.096Z,17.00
2019-02-28T13:18:09.075Z,21.20
2019-02-28T13:20:36.570Z,17.63
2019-02-28T13:23:04.418Z,21.23
2019-02-28T13:25:32.111Z,20.60
2019-02-28T13:27:59.883Z,22.80
2019-02-28T13:30:27.958Z,19.93
2019-02-28T13:32:55.916Z,20.53
2019-02-28T13:35:23.576Z,19.33
2019-02-28T13:37:51.240Z,20.03
2019-02-28T13:40:18.905Z,21.30
2019-02-28T13:42:46.584Z,21.07
2019-02-28T13:45:22.147Z,21.13
2019-02-28T13:47:46.277Z,21.93
2019-02-28T13:50:13.050Z,20.63
2019-02-28T13:52:40.780Z,19.10
2019-02-28T13:55:08.458Z,21.57
2019-02-28T13:57:36.219Z,22.00
2019-02-28T14:00:08.023Z,24.90
2019-02-28T14:02:33.826Z,22.43
2019-02-28T14:05:03.046Z,22.87
2019-02-28T14:07:33.775Z,20.50
2019-02-28T14:10:00.545Z,24.03
2019-02-28T14:12:28.904Z,23.03
2019-02-28T14:14:56.720Z,23.23
2019-02-28T14:17:24.397Z,23.60
2019-02-28T14:19:52.728Z,22.07
2019-02-28T14:22:21.267Z,21.40
2019-02-28T14:24:48.932Z,21.90
2019-02-28T14:27:16.599Z,21.03
2019-02-28T14:29:48.347Z,21.43
2019-02-28T14:32:13.920Z,21.00
2019-02-28T14:34:41.591Z,22.53
2019-02-28T14:37:09.233Z,21.17
2019-02-28T14:39:39.813Z,22.53
2019-02-28T14:42:06.750Z,21.17
2019-02-28T14:44:35.610Z,23.10
2019-02-28T14:47:03.268Z,22.47
2019-02-28T14:49:31.012Z,20.93
2019-02-28T14:52:00.413Z,21.90
2019-02-28T14:54:28.020Z,21.33
2019-02-28T14:56:55.683Z,23.40
2019-02-28T14:59:23.333Z,22.57
2019-02-28T15:01:53.050Z,22.83
2019-02-28T15:04:20.499Z,21.60
2019-02-28T15:06:48.159Z,22.37
2019-02-28T15:09:15.917Z,24.47
2019-02-28T15:11:46.688Z,23.93
2019-02-28T15:14:12.984Z,24.27
2019-02-28T15:16:40.722Z,23.00
2019-02-28T15:19:08.387Z,23.33
2019-02-28T15:21:36.046Z,23.43
2019-02-28T15:24:05.433Z,24.13
2019-02-28T15:26:33.194Z,24.03
2019-02-28T15:29:01.007Z,22.70
2019-02-28T15:31:28.702Z,24.10
2019-02-28T15:33:56.372Z,23.63
2019-02-28T15:36:24.987Z,23.80
2019-02-28T15:38:52.769Z,22.90
2019-02-28T15:41:20.428Z,22.83
2019-02-28T15:43:50.315Z,23.60
2019-02-28T15:46:17.480Z,25.07
2019-02-28T15:48:45.156Z,25.50
2019-02-28T15:51:12.813Z,24.67
2019-02-28T15:53:40.475Z,25.47
2019-02-28T15:56:13.458Z,24.33
2019-02-28T15:58:37.690Z,25.87
2019-02-28T16:01:06.849Z,25.00
2019-02-28T16:03:34.515Z,25.83
2019-02-28T16:06:02.164Z,26.20
2019-02-28T16:08:29.844Z,26.20
2019-02-28T16:10:57.577Z,25.20
2019-02-28T16:13:25.884Z,25.47
2019-02-28T16:15:54.236Z,25.00
2019-02-28T16:18:21.888Z,26.37
2019-02-28T16:20:49.558Z,26.93
2019-02-28T16:23:17.239Z,25.77
2019-02-28T16:25:46.807Z,26.80
2019-02-28T16:28:14.262Z,28.13
2019-02-28T16:30:41.916Z,26.43
2019-02-28T16:33:09.567Z,25.93
2019-02-28T16:35:37.228Z,26.93
2019-02-28T16:38:06.562Z,28.20
2019-02-28T16:40:34.301Z,27.03
2019-02-28T16:43:01.955Z,27.03
2019-02-28T16:45:40.791Z,26.87
2019-02-28T16:48:09.561Z,26.67
2019-02-28T16:50:37.215Z,26.37
2019-02-28T16:53:04.881Z,26.63
2019-02-28T16:55:32.599Z,28.13
2019-02-28T16:58:00.255Z,28.20
2019-02-28T17:00:27.906Z,27.00
2019-02-28T17:02:55.560Z,27.97
2019-02-28T17:05:26.641Z,28.80
2019-02-28T17:07:52.573Z,26.50
2019-02-28T17:10:23.502Z,27.00
2019-02-28T17:13:04.318Z,27.70
2019-02-28T17:15:43.127Z,27.63
2019-02-28T17:18:14.632Z,27.97
2019-02-28T17:20:42.297Z,28.67
2019-02-28T17:23:09.988Z,26.00
2019-02-28T17:25:37.646Z,27.53
2019-02-28T17:28:25.239Z,28.10
2019-02-28T17:31:08.391Z,27.40
2019-02-28T17:33:35.362Z,27.63
2019-02-28T17:36:03.025Z,27.17
2019-02-28T17:38:32.233Z,28.70
2019-02-28T17:41:01.885Z,27.53
2019-02-28T17:43:29.420Z,28.90
2019-02-28T17:45:57.077Z,28.50
2019-02-28T17:48:24.944Z,26.50
2019-02-28T17:50:52.623Z,28.20
2019-02-28T17:53:20.266Z,27.07
2019-02-28T17:55:47.939Z,28.77
2019-02-28T17:58:15.594Z,28.73
2019-02-28T18:00:48.169Z,28.03
2019-02-28T18:03:16.980Z,27.97
2019-02-28T18:05:44.639Z,25.17
2019-02-28T18:08:12.309Z,26.93
2019-02-28T18:10:39.967Z,27.20
2019-02-28T18:13:07.618Z,26.23
2019-02-28T18:15:35.271Z,27.03
2019-02-28T18:18:05.466Z,25.53
2019-02-28T18:20:32.347Z,27.53
2019-02-28T18:23:00.057Z,24.53
2019-02-28T18:25:29.517Z,24.97
2019-02-28T18:27:57.078Z,25.77
2019-02-28T18:30:24.731Z,24.70
2019-02-28T18:32:52.384Z,24.90
2019-02-28T18:35:20.049Z,26.40
2019-02-28T18:37:47.716Z,23.93
2019-02-28T18:40:15.379Z,26.20
2019-02-28T18:42:43.036Z,25.87
2019-02-28T18:45:10.687Z,24.47
2019-02-28T18:47:39.669Z,24.33
2019-02-28T18:50:07.696Z,25.97
2019-02-28T18:52:35.408Z,26.33
2019-02-28T18:55:06.093Z,24.97
2019-02-28T18:57:32.464Z,25.13
2019-02-28T19:00:00.297Z,25.70
2019-02-28T19:02:28.039Z,25.70
2019-02-28T19:04:55.702Z,25.23
2019-02-28T19:07:23.363Z,27.23
2019-02-28T19:09:51.012Z,26.13
2019-02-28T19:12:18.656Z,26.87
2019-02-28T19:14:46.303Z,25.43
2019-02-28T19:17:13.960Z,24.77
2019-02-28T19:19:41.676Z,26.77
2019-02-28T19:22:09.322Z,25.37
2019-02-28T19:24:36.984Z,24.90
2019-02-28T19:27:04.643Z,25.93
2019-02-28T19:29:32.296Z,24.37
2019-02-28T19:31:59.956Z,24.73
2019-02-28T19:34:27.614Z,26.70
2019-02-28T19:36:55.263Z,23.33
2019-02-28T19:39:22.907Z,24.57
2019-02-28T19:41:50.555Z,25.97
2019-02-28T19:44:18.200Z,23.93
2019-02-28T19:46:45.868Z,24.67
2019-02-28T19:49:13.537Z,24.27
2019-02-28T19:51:41.256Z,23.83
2019-02-28T19:54:08.905Z,23.17
2019-02-28T19:56:36.547Z,24.87
2019-02-28T19:59:04.200Z,23.83
2019-02-28T20:01:31.851Z,24.20
2019-02-28T20:03:59.505Z,24.20
2019-02-28T20:06:27.162Z,23.57
2019-02-28T20:08:54.803Z,24.03
2019-02-28T20:11:22.748Z,24.83
2019-02-28T20:13:50.396Z,23.43
2019-02-28T20:16:18.111Z,25.53
2019-02-28T20:18:45.777Z,24.23
2019-02-28T20:21:13.438Z,24.30
2019-02-28T20:23:41.087Z,23.93
2019-02-28T20:26:08.743Z,22.80
2019-02-28T20:28:36.388Z,25.07
2019-02-28T20:31:04.037Z,24.93
2019-02-28T20:33:31.779Z,24.60
2019-02-28T20:35:59.451Z,24.53
2019-02-28T20:38:27.090Z,24.73
2019-02-28T20:40:54.736Z,25.43
2019-02-28T20:43:22.409Z,25.43
2019-02-28T20:45:50.061Z,23.87
2019-02-28T20:48:18.112Z,23.20
2019-02-28T20:50:46.338Z,25.47
2019-02-28T20:53:14.108Z,25.27
2019-02-28T20:55:41.751Z,24.23
2019-02-28T20:58:09.406Z,25.57
2019-02-28T21:00:37.058Z,24.50
2019-02-28T21:03:04.723Z,25.50
2019-02-28T21:05:32.370Z,24.10
2019-02-28T21:08:00.023Z,25.30
2019-02-28T21:10:27.676Z,25.27
2019-02-28T21:12:55.322Z,23.60
2019-02-28T21:15:24.702Z,24.87
2019-02-28T21:17:52.376Z,25.57
2019-02-28T21:20:20.029Z,26.07
2019-02-28T21:22:47.904Z,26.13
2019-02-28T21:25:15.710Z,27.00
2019-02-28T21:27:43.355Z,25.50
2019-02-28T21:30:11.001Z,28.33
2019-02-28T21:32:38.655Z,28.83
2019-02-28T21:35:06.389Z,25.77
2019-02-28T21:37:34.037Z,27.90
2019-02-28T21:40:01.680Z,28.17
2019-02-28T21:42:29.331Z,28.17
2019-02-28T21:44:56.976Z,27.53
2019-02-28T21:47:24.635Z,28.73
2019-02-28T21:49:52.307Z,28.77
2019-02-28T21:52:19.947Z,30.67
2019-02-28T21:54:47.598Z,29.83
2019-02-28T21:57:15.239Z,30.57
2019-02-28T21:59:42.880Z,28.93
2019-02-28T22:02:10.519Z,31.47
2019-02-28T22:04:38.174Z,30.70
2019-02-28T22:07:05.833Z,31.03
2019-02-28T22:09:33.481Z,32.40
2019-02-28T22:12:01.128Z,31.33
2019-02-28T22:14:28.774Z,31.00
2019-02-28T22:16:56.423Z,32.20
2019-02-28T22:19:24.086Z,30.97
2019-02-28T22:21:51.731Z,31.47
2019-02-28T22:24:19.394Z,30.40
2019-02-28T22:26:47.043Z,30.97
2019-02-28T22:29:14.692Z,31.50
2019-02-28T22:31:51.626Z,30.67
2019-02-28T22:34:25.979Z,32.47
2019-02-28T22:36:53.795Z,31.13
2019-02-28T22:39:21.443Z,31.67
2019-02-28T22:41:49.120Z,31.47
2019-02-28T22:44:16.764Z,32.63
2019-02-28T22:46:44.405Z,32.17
2019-02-28T22:49:12.043Z,32.80
2019-02-28T22:51:39.692Z,34.23
2019-02-28T22:54:07.403Z,31.97
2019-02-28T22:56:35.047Z,33.03
2019-02-28T22:59:02.721Z,32.73
2019-02-28T23:01:30.552Z,34.63
2019-02-28T23:03:58.203Z,31.03
2019-02-28T23:06:25.844Z,33.87
2019-02-28T23:08:53.508Z,33.83
2019-02-28T23:11:21.164Z,34.60
2019-02-28T23:13:48.910Z,34.27
2019-02-28T23:16:16.557Z,35.27
2019-02-28T23:18:44.205Z,34.23
2019-02-28T23:21:11.850Z,32.77
2019-02-28T23:23:39.504Z,34.47
2019-02-28T23:26:07.171Z,35.93
2019-02-28T23:28:34.922Z,35.23
2019-02-28T23:31:02.581Z,35.60
2019-02-28T23:33:30.231Z,35.63
2019-02-28T23:35:57.880Z,34.60
2019-02-28T23:38:25.539Z,34.67
2019-02-28T23:40:53.256Z,35.27
2019-02-28T23:43:20.907Z,35.93
2019-02-28T23:45:48.562Z,37.50
2019-02-28T23:48:16.210Z,37.03
2019-02-28T23:50:43.852Z,37.90
2019-02-28T23:53:11.506Z,35.87
2019-02-28T23:55:39.163Z,33.43
2019-02-28T23:58:06.814Z,34.83
